Terminal Aerodrome Forecast
Issued by NWS Albany, NY

Home | Current Version | Previous Version | Text Only | Print | Product List | Glossary On
Versions: 1 2 3 4 5 6 7 8 9 10 11 12 13 14 15 16 17 18 19
000
FTUS41 KALY 252202 AAC
TAFPOU
TAF AMD
KPOU 252202Z 2522/2618 20003KT P6SM FEW050 BKN200
      TEMPO 2522/2523 20008KT 2SM TSRA BR SCT020 OVC035CB
     FM260400 00000KT 2SM BR SCT003 SCT250=

USA.gov is the U.S. government's official web portal to all federal, state and local government web resources and services.